Time;durP1;ratioP1;P1;durP2;ratioP2;P2;SDS_P1;SDS_P2;PMS_P1;PMS_P2;Temp;Humidity;BMP_temperature;BMP_pressure;BME280_temperature;BME280_humidity;BME280_pressure;Samples;Min_cycle;Max_cycle;Signal;HPM_P1;HPM_P2
2023/04/29 00:00:05;;;;;;;5.07;3.22;;;;;;;9.92;100.00;97019.66;5024528;28;20163;-60
2023/04/29 00:02:37;;;;;;;5.63;3.25;;;;;;;10.02;100.00;97034.09;5027217;28;20044;-59
2023/04/29 00:05:05;;;;;;;11.20;4.03;;;;;;;9.98;100.00;97024.84;5025322;28;20052;-60
2023/04/29 00:07:32;;;;;;;5.38;3.42;;;;;;;10.08;100.00;97026.84;5025587;28;20739;-60
2023/04/29 00:09:59;;;;;;;4.55;2.92;;;;;;;10.15;100.00;97016.59;5025063;28;20050;-60
2023/04/29 00:12:27;;;;;;;4.18;2.78;;;;;;;10.12;100.00;97014.44;5026562;28;20030;-60
2023/04/29 00:14:53;;;;;;;4.57;3.00;;;;;;;10.13;100.00;97012.53;5024916;28;20302;-59
2023/04/29 00:17:20;;;;;;;5.55;2.80;;;;;;;10.13;100.00;97004.41;5022643;28;20075;-60
2023/04/29 00:19:46;;;;;;;6.80;2.88;;;;;;;10.17;100.00;97008.22;5025174;28;20591;-60
2023/04/29 00:22:13;;;;;;;5.60;3.10;;;;;;;10.02;100.00;97001.63;5026780;28;20157;-60
2023/04/29 00:24:40;;;;;;;4.95;2.83;;;;;;;10.02;100.00;97001.63;5024672;28;20049;-60
2023/04/29 00:27:06;;;;;;;8.23;3.20;;;;;;;9.97;100.00;97007.00;5024773;28;20041;-60
2023/04/29 00:29:33;;;;;;;4.22;2.83;;;;;;;9.98;100.00;96999.69;5025863;28;20651;-60
2023/04/29 00:31:59;;;;;;;4.97;3.15;;;;;;;9.89;100.00;96996.66;5023737;28;20566;-60
2023/04/29 00:34:25;;;;;;;5.65;3.28;;;;;;;9.98;100.00;97000.50;5024018;28;20521;-59
2023/04/29 00:36:52;;;;;;;6.40;3.67;;;;;;;10.01;100.00;97004.59;5021938;28;20137;-60
2023/04/29 00:39:18;;;;;;;4.97;3.50;;;;;;;9.88;100.00;96995.03;5017506;28;20073;-60
2023/04/29 00:41:45;;;;;;;7.20;2.97;;;;;;;9.92;100.00;97001.56;5025297;28;20065;-60
2023/04/29 00:44:12;;;;;;;5.82;3.05;;;;;;;9.98;100.00;97005.91;5025986;28;20040;-60
2023/04/29 00:46:38;;;;;;;5.85;3.47;;;;;;;10.03;100.00;97007.88;5028502;28;20616;-60
2023/04/29 00:49:07;;;;;;;5.32;3.22;;;;;;;10.01;100.00;97007.28;5022334;28;20057;-60
2023/04/29 00:51:35;;;;;;;5.30;3.28;;;;;;;10.07;100.00;97014.41;5024585;28;20099;-60
2023/04/29 00:54:03;;;;;;;5.18;3.08;;;;;;;10.10;100.00;97015.78;5031150;28;20103;-60
2023/04/29 00:56:32;;;;;;;7.68;3.10;;;;;;;10.19;100.00;97019.63;5022249;28;20053;-60
2023/04/29 00:59:01;;;;;;;8.95;3.53;;;;;;;10.20;100.00;97021.25;5034751;28;20545;-60
2023/04/29 01:01:31;;;;;;;4.68;3.47;;;;;;;10.23;100.00;97017.22;5024677;28;20047;-59
2023/04/29 01:03:58;;;;;;;14.18;3.50;;;;;;;10.19;100.00;97019.63;5024023;28;20041;-60
2023/04/29 01:06:40;;;;;;;6.82;3.08;;;;;;;10.12;100.00;97014.44;5025001;28;20056;-60
2023/04/29 01:09:21;;;;;;;4.60;3.00;;;;;;;10.14;100.00;97016.88;5021938;28;20037;-59
2023/04/29 01:12:17;;;;;;;5.57;3.50;;;;;;;10.02;100.00;97012.44;5028448;28;20596;-58
2023/04/29 01:14:52;;;;;;;7.40;3.72;;;;;;;10.02;100.00;97012.44;5016267;28;20065;-59
2023/04/29 01:17:24;;;;;;;10.07;3.88;;;;;;;10.10;100.00;97021.19;5022654;28;20152;-59
2023/04/29 01:19:57;;;;;;;6.10;3.20;;;;;;;10.15;100.00;97021.22;5025218;28;20541;-59
2023/04/29 01:22:24;;;;;;;5.15;3.65;;;;;;;10.13;100.00;97026.88;5031576;28;20042;-60
2023/04/29 01:24:50;;;;;;;9.20;3.38;;;;;;;10.16;100.00;97028.25;5021477;28;20046;-60
2023/04/29 01:27:32;;;;;;;5.15;3.72;;;;;;;10.16;100.00;97028.25;5023901;28;20048;-60
2023/04/29 01:30:38;;;;;;;6.30;3.20;;;;;;;10.31;100.00;97024.84;5024012;28;20037;-59
2023/04/29 01:33:36;;;;;;;5.10;3.40;;;;;;;10.38;100.00;97019.22;5031682;28;20864;-61
2023/04/29 01:36:40;;;;;;;5.13;3.03;;;;;;;10.50;100.00;97013.63;5022273;28;20103;-60
2023/04/29 01:39:19;;;;;;;4.72;3.05;;;;;;;10.57;100.00;97005.31;5019471;28;20566;-60
2023/04/29 01:42:07;;;;;;;5.97;3.17;;;;;;;10.53;100.00;97000.41;5020928;28;20046;-60
2023/04/29 01:44:35;;;;;;;4.85;2.90;;;;;;;10.58;100.00;96986.09;5021665;28;20048;-61
2023/04/29 01:47:02;;;;;;;4.50;2.67;;;;;;;10.57;100.00;96987.16;5006722;28;20045;-60
2023/04/29 01:49:36;;;;;;;7.22;2.63;;;;;;;10.63;100.00;96979.91;5023387;28;20579;-60
2023/04/29 01:52:04;;;;;;;6.18;2.50;;;;;;;10.60;100.00;96972.28;5020384;28;20542;-60
2023/04/29 01:54:31;;;;;;;4.03;2.30;;;;;;;10.63;100.00;96966.34;5028028;28;20069;-60
2023/04/29 01:56:57;;;;;;;4.60;2.03;;;;;;;10.57;100.00;96970.91;5021493;28;20044;-60
2023/04/29 01:59:35;;;;;;;4.22;2.15;;;;;;;10.62;100.00;96965.53;5022981;28;20071;-60
2023/04/29 02:02:20;;;;;;;4.40;2.10;;;;;;;10.76;100.00;96960.47;5024621;28;20029;-59
2023/04/29 02:04:55;;;;;;;4.80;2.22;;;;;;;10.78;100.00;96961.03;5021343;28;20049;-60
2023/04/29 02:07:22;;;;;;;4.50;2.22;;;;;;;10.92;100.00;96961.34;5021416;28;20041;-60
2023/04/29 02:09:49;;;;;;;7.15;2.00;;;;;;;11.00;100.00;96954.63;5020602;28;20045;-59
2023/04/29 02:12:16;;;;;;;5.50;2.20;;;;;;;11.01;100.00;96945.41;5021853;28;20041;-60
2023/04/29 02:14:43;;;;;;;3.83;2.10;;;;;;;11.00;100.00;96956.50;5023060;28;20436;-58
2023/04/29 02:17:09;;;;;;;3.35;2.30;;;;;;;10.98;100.00;96954.06;5019624;28;20061;-60
2023/04/29 02:19:36;;;;;;;7.93;2.67;;;;;;;10.88;100.00;96951.31;5019067;28;20394;-59
2023/04/29 02:22:02;;;;;;;4.50;2.17;;;;;;;10.91;100.00;96951.59;5021921;28;20054;-60
2023/04/29 02:24:29;;;;;;;5.75;2.33;;;;;;;10.90;100.00;96955.38;5022080;28;20037;-60
2023/04/29 02:26:55;;;;;;;4.68;1.98;;;;;;;10.93;100.00;96945.91;5019658;28;20111;-59
2023/04/29 02:29:22;;;;;;;3.88;1.90;;;;;;;10.88;100.00;96949.41;5021608;28;20041;-60
2023/04/29 02:31:48;;;;;;;3.97;2.30;;;;;;;10.84;100.00;96955.63;5021803;28;20055;-60
2023/04/29 02:34:15;;;;;;;3.22;1.85;;;;;;;10.77;100.00;96955.88;5019932;28;20945;-60
2023/04/29 02:36:41;;;;;;;5.40;2.10;;;;;;;10.66;100.00;96952.31;5020200;28;20091;-59
2023/04/29 02:39:08;;;;;;;3.75;1.90;;;;;;;10.60;100.00;96958.75;5021724;28;20069;-60
2023/04/29 02:41:35;;;;;;;3.50;2.03;;;;;;;10.63;100.00;96961.78;5023958;28;20053;-60
2023/04/29 02:44:01;;;;;;;3.63;2.05;;;;;;;10.61;100.00;96957.69;5021052;28;20135;-60
2023/04/29 02:46:28;;;;;;;3.83;1.90;;;;;;;10.58;100.00;96950.88;5021609;28;20045;-60
2023/04/29 02:48:54;;;;;;;5.50;2.20;;;;;;;10.53;100.00;96948.97;5016569;28;20049;-59
2023/04/29 02:51:21;;;;;;;3.47;1.98;;;;;;;10.52;100.00;96954.66;5022358;28;20464;-60
2023/04/29 02:53:48;;;;;;;3.63;2.00;;;;;;;10.44;100.00;96958.69;5027210;28;20044;-59
2023/04/29 02:56:14;;;;;;;5.18;2.05;;;;;;;10.32;100.00;96956.13;5020881;28;20054;-60
2023/04/29 02:58:41;;;;;;;9.80;2.92;;;;;;;10.23;100.00;96958.50;5023007;28;20040;-60
2023/04/29 03:01:07;;;;;;;3.55;1.73;;;;;;;10.09;100.00;96957.31;5022312;28;20111;-60
2023/04/29 03:03:34;;;;;;;4.05;2.10;;;;;;;9.79;100.00;96950.56;5022002;28;20037;-61
2023/04/29 03:06:02;;;;;;;5.75;2.60;;;;;;;9.43;100.00;96954.56;5020873;28;20103;-60
2023/04/29 03:08:28;;;;;;;5.20;2.45;;;;;;;9.36;100.00;96962.06;5022733;28;20041;-60
2023/04/29 03:10:55;;;;;;;4.75;2.40;;;;;;;9.27;100.00;96972.53;5018908;28;20120;-59
2023/04/29 03:13:22;;;;;;;4.10;2.58;;;;;;;9.07;100.00;96973.91;5022590;28;20554;-59
2023/04/29 03:15:48;;;;;;;4.03;2.30;;;;;;;9.01;100.00;96987.59;5019751;28;20604;-59
2023/04/29 03:18:15;;;;;;;5.22;2.28;;;;;;;8.96;100.00;96986.47;5019529;28;20065;-60
2023/04/29 03:20:42;;;;;;;5.72;2.72;;;;;;;8.91;100.00;96991.00;5021553;28;20058;-60
2023/04/29 03:23:08;;;;;;;5.55;3.47;;;;;;;8.86;100.00;97002.56;5024411;28;20038;-60
2023/04/29 03:25:35;;;;;;;6.03;3.40;;;;;;;8.62;100.00;96996.56;5022258;28;20509;-60
2023/04/29 03:28:03;;;;;;;5.47;3.42;;;;;;;8.62;100.00;97010.06;5020538;28;20053;-60
2023/04/29 03:30:30;;;;;;;6.03;3.47;;;;;;;8.74;100.00;97002.69;5022315;28;20046;-60
2023/04/29 03:32:57;;;;;;;6.00;4.13;;;;;;;8.82;100.00;97006.81;5020363;28;20069;-60
2023/04/29 03:35:25;;;;;;;6.35;4.05;;;;;;;8.76;100.00;97005.09;5021586;28;20156;-60
2023/04/29 03:38:22;;;;;;;6.38;4.32;;;;;;;8.65;100.00;96993.34;5014259;28;20576;-60
2023/04/29 03:40:48;;;;;;;6.80;3.60;;;;;;;8.55;100.00;96991.34;5020915;28;20048;-59
2023/04/29 03:43:16;;;;;;;5.50;3.85;;;;;;;8.32;100.00;96991.25;5022246;28;20579;-60
2023/04/29 03:45:43;;;;;;;7.63;4.05;;;;;;;8.34;100.00;96993.72;5021329;28;20041;-59
2023/04/29 03:48:11;;;;;;;6.57;4.03;;;;;;;8.48;100.00;97002.28;5016665;28;20108;-60
2023/04/29 03:50:38;;;;;;;8.32;4.90;;;;;;;8.55;100.00;97004.84;5021390;28;20063;-59
2023/04/29 03:53:05;;;;;;;7.30;5.25;;;;;;;8.80;100.00;97014.34;5027667;28;20050;-59
2023/04/29 03:55:31;;;;;;;7.47;5.50;;;;;;;8.91;100.00;97010.72;5017303;28;20052;-60
2023/04/29 03:57:58;;;;;;;9.95;5.63;;;;;;;8.80;100.00;96998.13;5020295;28;20037;-59
2023/04/29 04:00:25;;;;;;;6.78;4.97;;;;;;;8.78;100.00;97000.28;5024732;28;20062;-60
2023/04/29 04:02:54;;;;;;;9.70;4.97;;;;;;;8.68;100.00;96999.09;5016135;28;20052;-60
2023/04/29 04:05:24;;;;;;;7.50;5.05;;;;;;;8.83;100.00;97005.75;5017110;28;20054;-60
2023/04/29 04:07:54;;;;;;;7.35;4.85;;;;;;;8.88;100.00;97019.31;5023242;28;20040;-59
2023/04/29 04:10:39;;;;;;;10.32;6.70;;;;;;;9.20;100.00;97024.06;5022037;28;20049;-60
2023/04/29 04:13:19;;;;;;;10.35;6.72;;;;;;;9.25;100.00;97023.28;5023271;28;20033;-60
2023/04/29 04:15:50;;;;;;;9.55;6.35;;;;;;;9.55;100.00;97022.00;5021195;28;20049;-60
2023/04/29 04:18:17;;;;;;;10.30;6.18;;;;;;;9.53;100.00;97007.94;5017920;28;20073;-60
2023/04/29 04:20:44;;;;;;;9.45;6.47;;;;;;;9.59;100.00;97004.19;5023916;28;20144;-59
2023/04/29 04:23:10;;;;;;;8.48;5.38;;;;;;;9.62;100.00;97008.31;5024844;28;20123;-60
2023/04/29 04:25:37;;;;;;;9.52;6.40;;;;;;;9.65;100.00;97013.19;5023477;28;20133;-60
2023/04/29 04:28:25;;;;;;;7.43;6.03;;;;;;;9.71;100.00;97014.88;5019326;28;20111;-60
2023/04/29 04:30:59;;;;;;;8.68;5.38;;;;;;;9.78;100.00;97011.97;5035754;28;20583;-60
2023/04/29 04:33:26;;;;;;;7.60;5.82;;;;;;;9.85;100.00;97009.06;5023128;28;20049;-59
2023/04/29 04:35:53;;;;;;;7.57;5.35;;;;;;;9.81;100.00;97018.75;5019814;28;20505;-60
2023/04/29 04:38:20;;;;;;;7.60;5.38;;;;;;;9.83;100.00;97022.81;5022080;28;20049;-60
2023/04/29 04:40:47;;;;;;;8.38;5.22;;;;;;;9.75;100.00;97012.47;5020834;28;20049;-60
2023/04/29 04:43:34;;;;;;;7.47;4.82;;;;;;;9.69;100.00;97019.72;5022754;28;20141;-60
2023/04/29 04:46:15;;;;;;;7.53;5.53;;;;;;;9.78;100.00;97025.47;5021178;28;20072;-60
2023/04/29 04:48:52;;;;;;;8.90;5.60;;;;;;;9.82;100.00;97031.19;5021066;28;20667;-60
2023/04/29 04:51:19;;;;;;;7.88;5.28;;;;;;;9.79;100.00;97021.69;5026978;28;20033;-60
2023/04/29 04:53:46;;;;;;;8.30;5.60;;;;;;;9.82;100.00;97028.47;5022773;28;20049;-60
2023/04/29 04:56:21;;;;;;;8.90;4.97;;;;;;;9.93;100.00;97035.63;5020124;28;20052;-60
2023/04/29 04:58:48;;;;;;;6.85;5.22;;;;;;;9.94;100.00;97033.72;5020870;28;20042;-60
2023/04/29 05:01:14;;;;;;;6.80;4.88;;;;;;;10.02;100.00;97042.19;5020321;28;20041;-60
2023/04/29 05:03:41;;;;;;;8.95;5.80;;;;;;;10.11;100.00;97042.56;5021727;28;20536;-60
2023/04/29 05:06:08;;;;;;;8.02;5.78;;;;;;;10.18;100.00;97053.19;5023661;28;20034;-60
2023/04/29 05:08:35;;;;;;;7.63;4.85;;;;;;;10.24;100.00;97056.72;5020184;28;20603;-59
2023/04/29 05:11:03;;;;;;;9.32;6.00;;;;;;;10.38;100.00;97059.81;5012267;28;20045;-60
2023/04/29 05:13:29;;;;;;;10.15;5.82;;;;;;;10.51;100.00;97058.59;5022424;28;20072;-59
2023/04/29 05:15:56;;;;;;;8.57;5.60;;;;;;;10.60;100.00;97065.16;5023300;28;20075;-60
2023/04/29 05:18:27;;;;;;;8.00;6.50;;;;;;;10.62;100.00;97064.91;5013302;28;20041;-60
2023/04/29 05:20:53;;;;;;;8.07;5.80;;;;;;;10.69;100.00;97068.19;5023544;28;20053;-60
2023/04/29 05:23:21;;;;;;;8.20;5.63;;;;;;;10.76;100.00;97073.41;5023177;28;20045;-60
2023/04/29 05:25:48;;;;;;;7.65;5.40;;;;;;;10.78;100.00;97065.81;5021637;28;20116;-61
2023/04/29 05:28:15;;;;;;;11.63;6.70;;;;;;;10.75;100.00;97053.63;5021102;28;20424;-60
2023/04/29 05:30:43;;;;;;;11.88;6.32;;;;;;;10.78;100.00;97073.94;5025194;28;20049;-59
2023/04/29 05:33:10;;;;;;;7.40;5.53;;;;;;;10.86;100.00;97068.03;5019758;28;20520;-60
2023/04/29 05:35:37;;;;;;;7.22;5.80;;;;;;;10.90;100.00;97066.44;5027920;28;20045;-60
2023/04/29 05:38:04;;;;;;;6.40;5.18;;;;;;;10.85;100.00;97074.53;5023394;28;20053;-60
2023/04/29 05:40:35;;;;;;;8.10;5.57;;;;;;;10.75;100.00;97082.59;5016469;28;20099;-60
2023/04/29 05:43:33;;;;;;;6.93;4.85;;;;;;;10.84;100.00;97072.09;4998647;28;20527;-60
2023/04/29 05:46:02;;;;;;;8.30;5.72;;;;;;;10.83;100.00;97082.09;5020740;28;20132;-60
2023/04/29 05:48:29;;;;;;;7.78;5.70;;;;;;;10.90;100.00;97084.56;5014390;28;20049;-60
2023/04/29 05:50:55;;;;;;;8.75;6.10;;;;;;;10.91;100.00;97089.75;5017855;28;20037;-60
2023/04/29 05:53:23;;;;;;;9.02;5.13;;;;;;;10.86;100.00;97094.31;5018743;28;20064;-51
2023/04/29 05:55:49;;;;;;;6.63;5.18;;;;;;;10.93;100.00;97101.13;5028101;28;20459;-51
2023/04/29 05:58:17;;;;;;;6.35;4.85;;;;;;;10.95;100.00;97105.47;5017381;28;20045;-53
2023/04/29 06:00:43;;;;;;;7.75;4.93;;;;;;;10.95;100.00;97114.44;5016973;28;20061;-50
2023/04/29 06:03:17;;;;;;;6.22;4.85;;;;;;;11.28;100.00;97111.63;5019545;28;20038;-50
2023/04/29 06:05:44;;;;;;;6.47;4.47;;;;;;;11.20;100.00;97115.63;5015370;28;20056;-51
2023/04/29 06:08:31;;;;;;;5.22;3.80;;;;;;;11.28;100.00;97114.34;5012900;28;20087;-49
2023/04/29 06:11:04;;;;;;;4.85;3.20;;;;;;;11.17;100.00;97121.59;5011541;28;20712;-52
2023/04/29 06:13:31;;;;;;;6.53;3.58;;;;;;;11.19;100.00;97117.56;5015643;28;20033;-53
2023/04/29 06:15:58;;;;;;;4.68;3.30;;;;;;;11.36;100.00;97129.28;5013905;28;20061;-51
2023/04/29 06:18:26;;;;;;;5.65;3.30;;;;;;;11.42;100.00;97139.91;5012366;28;20045;-54
2023/04/29 06:20:53;;;;;;;4.45;2.92;;;;;;;11.21;100.00;97128.13;5012753;28;20520;-53
2023/04/29 06:23:19;;;;;;;4.30;2.75;;;;;;;11.10;100.00;97138.09;5016957;28;20037;-48
2023/04/29 06:25:46;;;;;;;5.40;3.22;;;;;;;11.02;100.00;97141.28;5021197;28;20160;-47
2023/04/29 06:28:13;;;;;;;4.63;3.20;;;;;;;10.90;100.00;97144.16;5013017;28;20084;-48
2023/04/29 06:30:39;;;;;;;4.30;2.95;;;;;;;11.04;100.00;97145.38;5021649;28;20045;-50
2023/04/29 06:33:07;;;;;;;4.43;2.65;;;;;;;11.15;100.00;97148.13;5017970;28;20578;-52
2023/04/29 06:35:38;;;;;;;4.97;3.28;;;;;;;11.16;100.00;97156.00;5022123;28;20531;-51
2023/04/29 06:38:12;;;;;;;5.97;3.38;;;;;;;11.22;100.00;97164.16;5017369;28;20057;-50
2023/04/29 06:40:59;;;;;;;5.07;3.92;;;;;;;11.16;100.00;97163.31;5014421;28;20148;-51
2023/04/29 06:43:45;;;;;;;5.32;3.67;;;;;;;11.13;100.00;97166.56;5019024;28;20457;-50
2023/04/29 06:46:33;;;;;;;5.68;3.70;;;;;;;11.17;100.00;97167.69;5017987;28;20124;-55
2023/04/29 06:49:15;;;;;;;6.95;3.70;;;;;;;11.28;100.00;97173.97;5018084;28;20049;-54
2023/04/29 06:51:42;;;;;;;5.13;2.97;;;;;;;11.54;100.00;97168.69;5019551;28;20041;-50
2023/04/29 06:54:08;;;;;;;8.35;3.75;;;;;;;11.44;100.00;97178.41;5024129;28;20124;-53
2023/04/29 06:56:35;;;;;;;3.70;2.50;;;;;;;11.53;100.00;97178.72;5018331;28;20045;-52
2023/04/29 06:59:03;;;;;;;5.20;3.08;;;;;;;11.60;100.00;97180.41;5019626;28;20049;-54
2023/04/29 07:01:29;;;;;;;7.32;3.03;;;;;;;11.76;100.00;97181.28;5019546;28;20695;-55
2023/04/29 07:03:56;;;;;;;3.90;2.78;;;;;;;11.69;100.00;97179.59;5023559;28;20065;-54
2023/04/29 07:06:22;;;;;;;6.10;3.15;;;;;;;11.66;100.00;97182.88;5018291;28;20050;-50
2023/04/29 07:08:51;;;;;;;5.25;2.90;;;;;;;11.70;100.00;97183.16;5011432;28;20041;-59
2023/04/29 07:11:19;;;;;;;4.57;2.70;;;;;;;11.67;100.00;97189.09;5029160;28;20111;-60
2023/04/29 07:13:46;;;;;;;5.18;3.25;;;;;;;11.63;100.00;97190.69;5019820;28;20041;-60
2023/04/29 07:16:20;;;;;;;4.00;2.50;;;;;;;11.63;100.00;97191.53;5019970;28;20510;-59
2023/04/29 07:18:48;;;;;;;4.78;3.20;;;;;;;11.63;100.00;97194.22;5015059;28;20562;-57
2023/04/29 07:21:14;;;;;;;3.70;2.40;;;;;;;11.35;100.00;97198.13;5016413;28;20584;-58
2023/04/29 07:23:41;;;;;;;5.20;2.60;;;;;;;11.55;100.00;97202.88;5016858;28;20042;-57
2023/04/29 07:26:12;;;;;;;5.25;2.75;;;;;;;11.56;100.00;97208.03;5011640;28;20053;-56
2023/04/29 07:28:39;;;;;;;6.20;2.50;;;;;;;11.69;100.00;97208.63;5016606;28;20778;-58
2023/04/29 07:31:08;;;;;;;3.58;2.45;;;;;;;11.52;100.00;97209.63;4986371;28;20300;-57
2023/04/29 07:33:34;;;;;;;4.05;2.50;;;;;;;11.58;100.00;97210.47;5014881;28;20060;-58
2023/04/29 07:36:02;;;;;;;3.50;2.30;;;;;;;11.71;100.00;97207.28;5018657;28;20044;-57
2023/04/29 07:38:30;;;;;;;4.38;2.50;;;;;;;11.80;100.00;97213.00;5014569;28;20103;-57
2023/04/29 07:40:56;;;;;;;4.50;2.60;;;;;;;11.68;100.00;97215.94;5017059;28;22039;-57
2023/04/29 07:43:23;;;;;;;5.07;2.67;;;;;;;12.02;100.00;97206.59;5015912;28;20437;-58
2023/04/29 07:45:50;;;;;;;4.53;3.05;;;;;;;12.09;100.00;97211.84;5018910;28;20041;-57
2023/04/29 07:48:16;;;;;;;4.80;2.33;;;;;;;11.92;100.00;97209.28;5014886;28;20045;-57
2023/04/29 07:50:43;;;;;;;7.22;2.75;;;;;;;12.03;100.00;97212.84;5018277;28;20488;-56
2023/04/29 07:53:09;;;;;;;4.28;2.33;;;;;;;12.19;100.00;97219.19;5019875;28;20061;-55
2023/04/29 07:55:37;;;;;;;4.18;2.67;;;;;;;12.30;100.00;97222.75;5018229;28;20038;-57
2023/04/29 07:58:04;;;;;;;3.78;2.53;;;;;;;12.04;100.00;97222.63;5016590;28;20045;-56
2023/04/29 08:00:31;;;;;;;4.13;2.58;;;;;;;11.95;100.00;97225.03;5023339;28;20613;-59
2023/04/29 08:02:57;;;;;;;5.72;3.30;;;;;;;12.16;100.00;97227.88;5023265;28;20041;-60
2023/04/29 08:05:24;;;;;;;6.10;2.75;;;;;;;12.29;100.00;97224.66;5024866;28;20669;-60
2023/04/29 08:07:52;;;;;;;5.43;2.85;;;;;;;12.17;100.00;97224.06;5017222;28;20092;-60
2023/04/29 08:10:18;;;;;;;4.18;2.60;;;;;;;12.21;100.00;97230.59;5018638;28;20129;-59
2023/04/29 08:12:45;;;;;;;5.85;2.95;;;;;;;12.28;100.00;97231.19;5017728;28;20128;-60
2023/04/29 08:15:12;;;;;;;3.70;2.38;;;;;;;12.53;100.00;97235.03;5017086;28;20596;-60
2023/04/29 08:17:38;;;;;;;5.05;2.75;;;;;;;12.41;100.00;97234.44;5015308;28;20464;-60
2023/04/29 08:20:06;;;;;;;3.50;2.15;;;;;;;12.33;100.00;97241.22;5020107;28;20065;-60
2023/04/29 08:22:33;;;;;;;4.85;2.80;;;;;;;12.12;100.00;97238.44;5021773;28;20515;-60
2023/04/29 08:25:01;;;;;;;4.28;2.78;;;;;;;11.88;100.00;97246.16;5024015;28;20045;-59
2023/04/29 08:27:28;;;;;;;4.18;2.42;;;;;;;12.16;100.00;97244.16;5022947;28;20559;-60
2023/04/29 08:29:55;;;;;;;6.13;2.90;;;;;;;12.22;100.00;97257.47;5022539;28;20046;-60
2023/04/29 08:32:21;;;;;;;4.07;2.35;;;;;;;12.44;100.00;97248.31;5022591;28;20111;-60
2023/04/29 08:34:48;;;;;;;6.47;2.60;;;;;;;12.73;100.00;97249.75;5021463;28;20049;-60
2023/04/29 08:37:15;;;;;;;4.50;2.58;;;;;;;12.91;100.00;97253.03;5021004;28;20416;-60
2023/04/29 08:39:46;;;;;;;5.18;2.60;;;;;;;12.69;97.80;97246.75;5022261;28;20053;-59
2023/04/29 08:42:12;;;;;;;4.57;2.47;;;;;;;12.60;99.08;97243.75;5027528;28;20045;-60
2023/04/29 08:44:40;;;;;;;5.90;3.55;;;;;;;12.49;99.92;97242.06;5018643;28;20045;-60
2023/04/29 08:47:07;;;;;;;3.78;2.00;;;;;;;12.66;97.82;97252.72;5013809;28;20038;-59
2023/04/29 08:49:36;;;;;;;3.97;2.17;;;;;;;12.63;98.64;97252.44;5020863;28;20606;-60
2023/04/29 08:52:03;;;;;;;4.00;2.33;;;;;;;13.11;98.67;97257.66;5013305;28;20756;-60
2023/04/29 08:54:31;;;;;;;3.83;2.47;;;;;;;13.01;95.61;97255.72;5019793;28;20053;-60
2023/04/29 08:56:59;;;;;;;4.57;2.83;;;;;;;12.93;94.30;97262.53;5014259;28;20052;-59
2023/04/29 08:59:28;;;;;;;6.00;3.35;;;;;;;13.07;93.92;97264.72;5016240;28;20049;-60
2023/04/29 09:01:56;;;;;;;6.65;3.50;;;;;;;12.87;91.33;97250.03;5017602;28;20531;-59
2023/04/29 09:04:40;;;;;;;6.53;3.30;;;;;;;12.80;94.47;97258.47;5021996;28;20033;-59
2023/04/29 09:07:09;;;;;;;6.07;3.60;;;;;;;12.93;94.78;97267.97;5012927;28;20037;-60
2023/04/29 09:09:38;;;;;;;5.93;3.20;;;;;;;13.26;92.10;97259.56;5017225;28;20053;-59
2023/04/29 09:12:05;;;;;;;6.50;3.20;;;;;;;13.12;92.74;97265.53;5016668;28;21328;-60
2023/04/29 09:14:35;;;;;;;4.75;2.60;;;;;;;13.31;91.68;97262.28;5014856;28;20128;-60
2023/04/29 09:17:01;;;;;;;6.63;2.70;;;;;;;13.33;94.76;97264.72;5012633;28;20432;-60
2023/04/29 09:19:30;;;;;;;4.03;2.25;;;;;;;13.15;93.50;97261.47;5017344;28;20667;-60
2023/04/29 09:21:56;;;;;;;5.47;2.55;;;;;;;13.50;94.35;97259.84;5011032;28;20045;-60
2023/04/29 09:24:28;;;;;;;4.63;2.53;;;;;;;13.77;91.94;97261.44;5009733;28;20705;-60
2023/04/29 09:26:55;;;;;;;;;;;;;;;13.33;93.67;97262.00;5014514;28;20060;-60
2023/04/29 09:29:22;;;;;;;4.50;2.35;;;;;;;13.40;90.53;97266.09;5018403;28;20422;-60
2023/04/29 09:31:49;;;;;;;4.60;2.20;;;;;;;13.28;90.81;97268.28;5021106;28;20513;-60
2023/04/29 09:34:16;;;;;;;4.18;2.35;;;;;;;13.17;92.23;97274.78;5017026;28;20751;-59
2023/04/29 09:36:48;;;;;;;4.88;2.78;;;;;;;13.08;90.78;97267.16;5017710;28;20045;-59
2023/04/29 09:39:19;;;;;;;3.55;2.00;;;;;;;12.95;90.88;97270.41;5015863;28;20068;-58
2023/04/29 09:41:49;;;;;;;;;;;;;;;12.91;91.60;97280.19;5015616;28;20044;-59
2023/04/29 09:44:16;;;;;;;4.22;1.88;;;;;;;13.21;90.74;97278.59;5016824;28;20031;-59
2023/04/29 09:46:42;;;;;;;6.05;2.08;;;;;;;13.29;91.32;97282.66;5013815;28;20054;-59
2023/04/29 09:49:26;;;;;;;4.40;2.45;;;;;;;13.67;88.01;97282.41;5016141;28;20053;-59
2023/04/29 09:51:58;;;;;;;3.75;2.05;;;;;;;13.28;89.22;97281.88;5014763;28;20046;-58
2023/04/29 09:54:29;;;;;;;3.80;2.40;;;;;;;13.13;90.59;97280.75;5025856;28;20049;-60
2023/04/29 09:56:58;;;;;;;4.60;2.63;;;;;;;13.02;92.67;97290.00;5015444;28;20045;-60
2023/04/29 09:59:25;;;;;;;3.85;2.50;;;;;;;13.01;94.91;97285.63;5021027;28;20041;-60
2023/04/29 10:01:54;;;;;;;5.43;2.50;;;;;;;13.28;89.59;97290.03;5014780;28;20129;-60
2023/04/29 10:04:23;;;;;;;6.68;2.72;;;;;;;13.30;88.03;97292.47;5016265;28;20052;-59
2023/04/29 10:06:52;;;;;;;4.10;2.50;;;;;;;13.48;90.44;97291.13;5017879;28;20136;-60
2023/04/29 10:09:21;;;;;;;6.25;2.50;;;;;;;13.27;92.21;97286.47;5017659;28;20037;-58
2023/04/29 10:11:50;;;;;;;5.05;2.38;;;;;;;13.21;90.08;97298.44;5015559;28;20057;-60
2023/04/29 10:14:22;;;;;;;4.18;2.10;;;;;;;13.31;88.80;97289.50;5019006;28;20124;-59
2023/04/29 10:17:11;;;;;;;5.25;2.30;;;;;;;12.93;nan;97291.63;5016749;28;20490;-61
2023/04/29 10:19:49;;;;;;;4.30;2.40;;;;;;;13.22;90.98;97291.09;5021600;28;20076;-59
2023/04/29 10:22:25;;;;;;;4.05;2.47;;;;;;;13.16;90.18;97286.75;5016433;28;20041;-59
2023/04/29 10:24:54;;;;;;;5.45;2.90;;;;;;;13.21;88.99;97293.00;5022070;28;20041;-59
2023/04/29 10:27:21;;;;;;;5.95;3.00;;;;;;;13.30;88.03;97287.84;5022087;28;20120;-59
2023/04/29 10:29:52;;;;;;;4.43;2.80;;;;;;;13.27;86.98;97286.47;5023600;28;20041;-59
2023/04/29 10:32:20;;;;;;;5.20;2.70;;;;;;;13.56;86.64;97295.22;5027257;28;20096;-60
2023/04/29 10:34:49;;;;;;;7.15;3.90;;;;;;;13.64;86.68;97281.84;5015667;28;20063;-61
2023/04/29 10:37:16;;;;;;;9.00;4.38;;;;;;;13.49;89.42;97279.19;5017504;28;20076;-59
2023/04/29 10:39:51;;;;;;;9.40;5.47;;;;;;;13.81;86.04;97282.66;5021165;28;20045;-59
2023/04/29 10:42:43;;;;;;;9.90;5.55;;;;;;;13.82;84.33;97276.94;5019371;28;20051;-60
2023/04/29 10:45:27;;;;;;;8.43;4.75;;;;;;;13.95;82.31;97272.00;5020454;28;20650;-60
2023/04/29 10:48:09;;;;;;;5.80;2.88;;;;;;;13.64;81.45;97270.97;5017945;28;20512;-59
2023/04/29 10:50:47;;;;;;;5.20;2.45;;;;;;;13.39;83.10;97272.59;5018667;28;20468;-60
2023/04/29 10:53:15;;;;;;;5.00;2.83;;;;;;;13.71;83.96;97264.44;5021667;28;20053;-60
2023/04/29 10:55:46;;;;;;;6.25;2.83;;;;;;;13.83;82.24;97264.97;5010746;28;20096;-60
2023/04/29 10:58:41;;;;;;;5.35;2.17;;;;;;;14.07;78.09;97263.53;5018958;28;20526;-60
2023/04/29 11:01:10;;;;;;;3.60;2.20;;;;;;;14.31;75.19;97266.44;5019079;28;20038;-60
2023/04/29 11:03:59;;;;;;;4.45;2.13;;;;;;;14.29;75.39;97264.00;5014992;28;20137;-60
2023/04/29 11:06:34;;;;;;;4.10;2.22;;;;;;;14.17;76.91;97266.22;5019440;28;20037;-60
2023/04/29 11:09:09;;;;;;;6.40;2.42;;;;;;;14.17;78.08;97272.50;5017804;28;20045;-60
2023/04/29 11:11:42;;;;;;;4.93;2.72;;;;;;;14.45;78.15;97255.75;5016331;28;20465;-60
2023/04/29 11:14:12;;;;;;;3.88;1.73;;;;;;;14.77;75.55;97256.41;5018484;28;20072;-59
2023/04/29 11:16:55;;;;;;;5.38;2.78;;;;;;;14.49;76.71;97256.00;5022565;28;20053;-60
2023/04/29 11:19:47;;;;;;;4.55;2.38;;;;;;;14.67;77.22;97252.63;5022075;28;20468;-60
2023/04/29 11:22:17;;;;;;;6.60;2.30;;;;;;;14.77;73.36;97256.41;5016608;28;20056;-61
2023/04/29 11:25:01;;;;;;;4.55;2.67;;;;;;;14.52;73.26;97250.81;5025839;28;20083;-59
2023/04/29 11:27:36;;;;;;;4.90;2.67;;;;;;;14.48;75.60;97262.56;5015473;28;20061;-59
2023/04/29 11:30:11;;;;;;;6.15;3.25;;;;;;;14.76;74.62;97250.16;5022133;28;20085;-58
2023/04/29 11:32:40;;;;;;;6.97;3.17;;;;;;;14.89;76.57;97254.16;5020986;28;20664;-58
2023/04/29 11:35:14;;;;;;;9.25;4.32;;;;;;;14.98;78.26;97253.56;5023851;28;20045;-59
2023/04/29 11:37:43;;;;;;;6.63;4.47;;;;;;;14.80;79.37;97253.13;5020253;28;20053;-59
2023/04/29 11:40:12;;;;;;;6.80;5.00;;;;;;;14.42;81.91;97259.84;5019512;28;20047;-58
2023/04/29 11:42:49;;;;;;;9.30;5.03;;;;;;;14.62;78.52;97265.47;5021357;28;20088;-59